Time;durP1;ratioP1;P1;durP2;ratioP2;P2;SDS_P1;SDS_P2;PMS_P1;PMS_P2;Temp;Humidity;BMP_temperature;BMP_pressure;BME280_temperature;BME280_humidity;BME280_pressure;Samples;Min_cycle;Max_cycle;Signal;HPM_P1;HPM_P2
2021/05/15 00:01:10;;;;;;;8.45;5.85;;;;;;;11.70;73.68;96475.98;1729577;82;26274;-86
2021/05/15 00:03:37;;;;;;;7.12;5.17;;;;;;;11.75;73.68;96479.61;1724350;82;25689;-86
2021/05/15 00:06:03;;;;;;;9.55;5.12;;;;;;;11.71;73.67;96481.67;1702829;82;27552;-86
2021/05/15 00:08:30;;;;;;;10.70;5.72;;;;;;;11.69;73.84;96483.27;1706851;82;25225;-86
2021/05/15 00:10:57;;;;;;;6.85;5.78;;;;;;;11.68;73.95;96493.78;1725530;82;25624;-86
2021/05/15 00:13:24;;;;;;;7.20;4.97;;;;;;;11.67;74.08;96485.38;1699543;82;25671;-84
2021/05/15 00:15:52;;;;;;;5.72;4.53;;;;;;;11.60;73.99;96481.16;1706237;82;25580;-86
2021/05/15 00:18:19;;;;;;;9.45;5.72;;;;;;;11.52;73.92;96489.13;1718428;82;28280;-86
2021/05/15 00:20:45;;;;;;;5.35;4.72;;;;;;;11.52;74.10;96487.77;1719749;82;25929;-85
2021/05/15 00:23:12;;;;;;;6.08;4.37;;;;;;;11.53;74.18;96488.06;1699816;82;25731;-86
2021/05/15 00:25:39;;;;;;;8.63;5.00;;;;;;;11.53;74.29;96492.12;1717023;82;25666;-86
2021/05/15 00:28:05;;;;;;;6.78;5.58;;;;;;;11.53;74.38;96489.41;1718421;82;25713;-86
2021/05/15 00:30:32;;;;;;;8.53;6.37;;;;;;;11.47;74.38;96489.83;1709826;82;27303;-86
2021/05/15 00:32:58;;;;;;;8.98;5.67;;;;;;;11.47;74.54;96494.44;1708367;82;25240;-85
2021/05/15 00:35:25;;;;;;;10.85;5.70;;;;;;;11.48;74.66;96497.41;1708451;82;25670;-85
2021/05/15 00:37:52;;;;;;;7.80;5.35;;;;;;;11.47;74.73;96495.80;1722341;82;25610;-86
2021/05/15 00:40:19;;;;;;;7.03;5.35;;;;;;;11.48;74.79;96497.41;1703525;82;25599;-86
2021/05/15 00:42:47;;;;;;;6.65;4.95;;;;;;;11.48;74.86;96496.88;1726743;82;27513;-85
2021/05/15 00:45:16;;;;;;;7.12;4.78;;;;;;;11.49;74.90;96497.70;1729778;82;25747;-85
2021/05/15 00:47:43;;;;;;;9.15;4.95;;;;;;;11.49;74.95;96497.70;1726982;82;25627;-85
2021/05/15 00:50:11;;;;;;;10.03;5.17;;;;;;;11.48;74.98;96498.76;1716042;82;25652;-86
2021/05/15 00:52:39;;;;;;;11.22;5.70;;;;;;;11.48;74.91;96498.76;1707571;82;26357;-86
2021/05/15 00:55:12;;;;;;;12.43;7.75;;;;;;;11.47;74.91;96497.94;1703293;82;27559;-86
2021/05/15 00:57:40;;;;;;;12.05;6.92;;;;;;;11.48;74.85;96502.81;1741204;81;25256;-87
2021/05/15 01:00:13;;;;;;;10.48;6.75;;;;;;;11.51;74.83;96496.94;1726785;81;25277;-86
2021/05/15 01:02:41;;;;;;;11.55;5.60;;;;;;;11.53;74.85;96502.93;1716449;81;25626;-87
2021/05/15 01:05:10;;;;;;;10.68;6.42;;;;;;;11.45;74.82;96497.91;1716895;81;25631;-86
2021/05/15 01:07:37;;;;;;;13.68;8.10;;;;;;;11.42;74.85;96500.55;1715395;83;27424;-86
2021/05/15 01:10:06;;;;;;;16.75;9.93;;;;;;;11.42;74.85;96497.84;1707596;83;25565;-86
2021/05/15 01:12:33;;;;;;;9.13;6.97;;;;;;;11.38;74.84;96499.91;1706495;81;25693;-85
2021/05/15 01:15:00;;;;;;;7.92;6.05;;;;;;;11.36;74.83;96508.77;1703006;81;26332;-85
2021/05/15 01:17:27;;;;;;;11.63;6.83;;;;;;;11.36;74.86;96510.95;1702485;81;25571;-85
2021/05/15 01:19:53;;;;;;;9.50;5.80;;;;;;;11.32;74.82;96505.75;1730167;81;27557;-87
2021/05/15 01:22:20;;;;;;;9.28;5.03;;;;;;;11.26;74.80;96508.56;1743084;81;25585;-86
2021/05/15 01:24:47;;;;;;;6.72;4.58;;;;;;;11.28;74.89;96506.45;1705566;82;25654;-86
2021/05/15 01:27:14;;;;;;;10.05;5.08;;;;;;;11.31;74.90;96511.38;1724039;81;26092;-84
2021/05/15 01:29:43;;;;;;;8.48;5.90;;;;;;;11.33;74.90;96507.92;1747946;81;26573;-83
2021/05/15 01:32:10;;;;;;;6.30;5.50;;;;;;;11.34;74.97;96506.34;1703114;81;27506;-85
2021/05/15 01:34:41;;;;;;;7.65;5.30;;;;;;;11.37;74.94;96505.02;1702431;81;25626;-87
2021/05/15 01:37:08;;;;;;;8.23;5.87;;;;;;;11.33;74.92;96513.33;1715905;81;25560;-86
2021/05/15 01:39:34;;;;;;;6.80;4.90;;;;;;;11.32;75.00;96503.57;1721531;81;25693;-86
2021/05/15 01:42:01;;;;;;;9.28;5.80;;;;;;;11.34;75.02;96510.91;1746954;81;26400;-88
2021/05/15 01:44:32;;;;;;;9.23;6.00;;;;;;;11.35;75.03;96507.16;1750691;81;27519;-88
2021/05/15 01:46:59;;;;;;;28.77;10.72;;;;;;;11.38;75.01;96502.61;1750225;81;25662;-87
2021/05/15 01:49:25;;;;;;;14.07;8.35;;;;;;;11.39;74.99;96509.13;1745417;81;25594;-86
2021/05/15 01:51:52;;;;;;;19.10;10.85;;;;;;;11.38;75.03;96510.71;1752236;81;25640;-87
2021/05/15 01:54:19;;;;;;;20.72;12.30;;;;;;;11.35;75.08;96508.51;1749995;81;25637;-87
2021/05/15 01:56:45;;;;;;;28.07;14.23;;;;;;;11.36;75.04;96505.55;1749769;81;27331;-87
2021/05/15 01:59:12;;;;;;;16.75;11.35;;;;;;;11.35;75.00;96505.80;1748309;81;25497;-85
2021/05/15 02:01:38;;;;;;;18.02;12.03;;;;;;;11.31;74.95;96507.33;1753197;81;25750;-87
2021/05/15 02:04:05;;;;;;;24.23;11.53;;;;;;;11.31;75.00;96504.63;1750198;81;25664;-85
2021/05/15 02:06:31;;;;;;;20.08;10.50;;;;;;;11.29;75.00;96506.73;1731512;81;26352;-87
2021/05/15 02:08:58;;;;;;;14.83;9.30;;;;;;;11.24;75.05;96506.09;1739376;81;27983;-86
2021/05/15 02:11:26;;;;;;;14.40;7.92;;;;;;;11.23;75.08;96513.11;1747888;81;25659;-87
2021/05/15 02:13:53;;;;;;;19.45;8.53;;;;;;;11.21;75.13;96513.34;1750863;81;25676;-86
2021/05/15 02:16:19;;;;;;;9.65;5.83;;;;;;;11.19;75.18;96510.05;1753201;81;26319;-86
2021/05/15 02:18:46;;;;;;;8.50;5.35;;;;;;;11.16;75.19;96509.16;1751168;81;25609;-85
2021/05/15 02:21:13;;;;;;;8.73;4.70;;;;;;;11.15;75.24;96512.39;1751454;81;27397;-87
2021/05/15 02:23:40;;;;;;;8.70;5.53;;;;;;;11.16;75.26;96505.94;1749614;81;25708;-83
2021/05/15 02:26:07;;;;;;;6.30;5.05;;;;;;;11.19;75.33;96505.47;1749755;81;25691;-86
2021/05/15 02:28:34;;;;;;;6.97;4.85;;;;;;;11.22;75.30;96500.66;1751169;81;25755;-85
2021/05/15 02:31:01;;;;;;;7.28;5.15;;;;;;;11.24;75.27;96507.97;1750626;81;25705;-85
2021/05/15 02:33:28;;;;;;;9.25;5.03;;;;;;;11.25;75.26;96500.16;1749281;81;27342;-85
2021/05/15 02:35:54;;;;;;;6.90;4.58;;;;;;;11.24;75.27;96505.27;1751668;81;25573;-87
2021/05/15 02:38:22;;;;;;;10.50;5.90;;;;;;;11.15;75.24;96504.29;1749973;81;25254;-86
2021/05/15 02:40:51;;;;;;;6.75;5.17;;;;;;;11.09;75.34;96498.50;1748309;81;25784;-84
2021/05/15 02:43:17;;;;;;;9.25;6.22;;;;;;;11.05;75.48;96504.07;1743772;81;25720;-86
2021/05/15 02:45:44;;;;;;;9.50;5.28;;;;;;;11.02;75.59;96501.83;1731791;82;27641;-86
2021/05/15 02:48:16;;;;;;;8.35;5.83;;;;;;;10.95;75.62;96503.84;1711351;82;25872;-86
2021/05/15 02:50:39;;;;;;;8.43;5.75;;;;;;;10.89;75.75;96506.12;1710903;82;25579;-86
2021/05/15 02:53:06;;;;;;;12.95;5.70;;;;;;;10.87;75.81;96503.39;1721678;82;25635;-85
2021/05/15 02:55:33;;;;;;;7.90;5.17;;;;;;;10.83;75.89;96505.72;1728502;82;25617;-86
2021/05/15 02:57:59;;;;;;;15.83;7.30;;;;;;;10.80;75.96;96502.95;1724997;82;27834;-85
2021/05/15 03:00:28;;;;;;;8.00;5.58;;;;;;;10.79;76.03;96507.23;1721063;82;25590;-85
2021/05/15 03:02:57;;;;;;;9.93;5.42;;;;;;;10.77;76.15;96506.64;1729095;82;25664;-85
2021/05/15 03:05:26;;;;;;;8.08;4.47;;;;;;;10.76;76.19;96514.45;1729071;82;25610;-85
2021/05/15 03:07:53;;;;;;;7.65;4.65;;;;;;;10.74;76.26;96509.31;1731969;82;25594;-85
2021/05/15 03:10:26;;;;;;;10.98;5.92;;;;;;;10.74;76.31;96513.36;1711490;82;27946;-85
2021/05/15 03:12:57;;;;;;;9.20;5.65;;;;;;;10.73;76.31;96518.98;1725933;82;25831;-84
2021/05/15 03:15:26;;;;;;;31.23;10.85;;;;;;;10.72;76.38;96518.16;1717396;82;25701;-85
2021/05/15 03:17:53;;;;;;;18.95;9.88;;;;;;;10.73;76.40;96521.69;1708198;82;26332;-85
2021/05/15 03:20:23;;;;;;;11.05;6.17;;;;;;;10.74;76.46;96515.23;1729381;82;25610;-84
2021/05/15 03:22:50;;;;;;;8.78;6.05;;;;;;;10.72;76.42;96511.94;1726452;82;27278;-84
2021/05/15 03:25:19;;;;;;;10.58;6.42;;;;;;;10.76;76.54;96512.57;1713567;82;25678;-84
2021/05/15 03:27:45;;;;;;;9.03;5.83;;;;;;;10.80;76.54;96515.11;1733078;82;25600;-84
2021/05/15 03:30:14;;;;;;;7.45;5.45;;;;;;;10.86;76.51;96524.16;1728906;82;26157;-85
2021/05/15 03:32:42;;;;;;;18.55;8.08;;;;;;;10.86;76.48;96510.66;1728933;82;25699;-84
2021/05/15 03:35:13;;;;;;;15.45;6.45;;;;;;;10.88;76.43;96513.10;1724758;82;27568;-84
2021/05/15 03:37:40;;;;;;;9.77;5.33;;;;;;;10.91;76.42;96521.56;1729871;82;25785;-84
2021/05/15 03:40:09;;;;;;;6.95;5.12;;;;;;;10.91;76.35;96509.41;1721689;82;25648;-84
2021/05/15 03:42:36;;;;;;;9.45;5.67;;;;;;;10.92;76.35;96513.76;1710416;83;26283;-85
2021/05/15 03:45:03;;;;;;;6.33;5.08;;;;;;;10.94;76.33;96513.00;1717475;83;25655;-82
2021/05/15 03:47:30;;;;;;;10.70;5.40;;;;;;;10.94;76.34;96512.17;1718966;82;27953;-84
2021/05/15 03:49:56;;;;;;;9.90;4.83;;;;;;;10.93;76.30;96511.35;1720259;83;25951;-85
2021/05/15 03:52:23;;;;;;;9.50;4.80;;;;;;;10.94;76.36;96517.58;1717198;83;25610;-84
2021/05/15 03:54:50;;;;;;;6.37;4.65;;;;;;;10.93;76.37;96522.16;1719192;83;25641;-85
2021/05/15 03:57:16;;;;;;;8.23;4.65;;;;;;;10.93;76.32;96519.98;1717134;83;25677;-85
2021/05/15 03:59:43;;;;;;;6.50;4.67;;;;;;;10.95;76.30;96525.45;1717210;83;27317;-84
2021/05/15 04:02:09;;;;;;;6.75;4.80;;;;;;;10.97;76.23;96528.73;1717203;83;25611;-84
2021/05/15 04:04:37;;;;;;;8.88;4.85;;;;;;;10.97;76.18;96528.73;1717211;83;26428;-85
2021/05/15 04:07:04;;;;;;;5.90;3.67;;;;;;;10.97;76.18;96531.44;1717292;83;25620;-85
2021/05/15 04:09:31;;;;;;;6.17;4.22;;;;;;;10.92;76.09;96536.70;1719401;83;25733;-85
2021/05/15 04:11:58;;;;;;;7.12;3.83;;;;;;;10.93;76.13;96537.00;1717491;83;28186;-85
2021/05/15 04:14:40;;;;;;;5.30;3.55;;;;;;;10.91;76.10;96536.41;1717163;83;25641;-85
2021/05/15 04:17:03;;;;;;;6.35;4.15;;;;;;;10.91;76.12;96534.23;1714447;83;25586;-84
2021/05/15 04:19:28;;;;;;;5.05;3.87;;;;;;;10.91;76.10;96532.36;1716924;83;25989;-84
2021/05/15 04:21:55;;;;;;;4.78;3.65;;;;;;;10.89;76.06;96535.00;1719037;83;25686;-87
2021/05/15 04:24:26;;;;;;;4.92;3.85;;;;;;;10.83;76.10;96531.38;1718113;83;28212;-85
2021/05/15 04:26:59;;;;;;;5.45;3.90;;;;;;;10.82;76.08;96534.59;1717395;83;25947;-85
2021/05/15 04:29:27;;;;;;;8.75;3.90;;;;;;;10.83;76.03;96536.24;1719317;83;26603;-85
2021/05/15 04:31:56;;;;;;;5.10;4.42;;;;;;;10.83;76.02;96539.47;1717718;83;26141;-84
2021/05/15 04:34:25;;;;;;;5.25;4.75;;;;;;;10.82;75.98;96544.57;1718272;83;25650;-84
2021/05/15 04:36:52;;;;;;;6.65;4.20;;;;;;;10.81;75.98;96541.58;1717391;83;27470;-84
2021/05/15 04:39:18;;;;;;;7.03;4.65;;;;;;;10.79;75.95;96544.50;1718249;83;25743;-84
2021/05/15 04:41:45;;;;;;;5.65;4.50;;;;;;;10.75;75.99;96541.97;1719039;82;25621;-85
2021/05/15 04:44:11;;;;;;;7.58;4.50;;;;;;;10.77;76.02;96547.14;1729701;82;25764;-86
2021/05/15 04:46:38;;;;;;;7.87;3.62;;;;;;;10.78;76.03;96544.20;1729647;82;25581;-84
2021/05/15 04:49:05;;;;;;;9.20;4.20;;;;;;;10.80;76.14;96547.50;1724091;82;27431;-84
2021/05/15 04:51:32;;;;;;;24.63;8.58;;;;;;;10.85;76.15;96550.04;1730092;82;25648;-84
2021/05/15 04:54:01;;;;;;;14.40;6.62;;;;;;;10.90;76.13;96559.06;1718252;82;25627;-84
2021/05/15 04:56:27;;;;;;;9.88;4.78;;;;;;;10.95;75.96;96555.15;1706601;82;25686;-84
2021/05/15 04:58:53;;;;;;;8.95;4.30;;;;;;;11.03;75.80;96561.54;1723019;82;25666;-84
2021/05/15 05:01:20;;;;;;;8.68;3.65;;;;;;;11.09;75.59;96565.20;1708620;82;27334;-84
2021/05/15 05:03:47;;;;;;;6.60;4.33;;;;;;;11.15;75.43;96563.71;1729705;82;26352;-84
2021/05/15 05:06:13;;;;;;;7.47;3.87;;;;;;;11.22;75.38;96561.44;1728952;82;25282;-84
2021/05/15 05:08:40;;;;;;;7.45;3.50;;;;;;;11.28;75.42;96556.42;1725495;82;25565;-85
2021/05/15 05:11:07;;;;;;;12.70;5.87;;;;;;;11.35;75.38;96554.44;1726450;82;25617;-85
2021/05/15 05:13:33;;;;;;;7.33;5.60;;;;;;;11.40;75.41;96555.36;1729150;82;27543;-86
2021/05/15 05:16:00;;;;;;;5.87;4.62;;;;;;;11.48;75.22;96558.21;1729228;82;25742;-85
2021/05/15 05:18:27;;;;;;;7.75;4.50;;;;;;;11.55;74.85;96560.28;1729805;82;25684;-85
2021/05/15 05:20:56;;;;;;;7.08;4.90;;;;;;;11.60;74.66;96561.72;1729004;82;26068;-85
2021/05/15 05:23:22;;;;;;;4.97;3.70;;;;;;;11.64;74.63;96561.55;1729069;82;25743;-85
2021/05/15 05:25:49;;;;;;;5.03;3.15;;;;;;;11.72;74.50;96563.86;1729615;82;27998;-85
2021/05/15 05:28:20;;;;;;;4.20;3.35;;;;;;;11.80;74.42;96565.42;1708176;82;25655;-85
2021/05/15 05:30:43;;;;;;;4.55;3.35;;;;;;;11.87;74.03;96560.69;1729757;82;25676;-87
2021/05/15 05:33:10;;;;;;;5.08;3.40;;;;;;;11.92;73.78;96568.09;1720218;82;25936;-85
2021/05/15 05:35:38;;;;;;;7.65;3.42;;;;;;;11.96;73.62;96562.48;1717260;82;25611;-85
2021/05/15 05:38:05;;;;;;;4.17;3.37;;;;;;;12.02;73.44;96567.77;1704136;82;28266;-85
2021/05/15 05:40:31;;;;;;;5.05;3.55;;;;;;;12.08;73.30;96567.31;1723758;82;25696;-85
2021/05/15 05:42:58;;;;;;;4.45;3.12;;;;;;;12.16;73.21;96565.59;1708941;82;25700;-85
2021/05/15 05:45:24;;;;;;;4.58;3.15;;;;;;;12.22;73.20;96567.32;1702050;83;25715;-86
2021/05/15 05:47:51;;;;;;;4.30;3.05;;;;;;;12.27;73.09;96566.08;1698728;84;25563;-86
2021/05/15 05:50:18;;;;;;;5.83;3.12;;;;;;;12.33;73.12;96570.50;1698882;84;27392;-86
2021/05/15 05:52:44;;;;;;;6.00;3.17;;;;;;;12.40;73.00;96572.55;1681658;83;25680;-85
2021/05/15 05:55:11;;;;;;;4.42;3.20;;;;;;;12.46;72.80;96572.91;1690964;84;25687;-85
2021/05/15 05:57:38;;;;;;;4.08;2.75;;;;;;;12.52;72.61;96574.66;1704183;84;26371;-86
2021/05/15 06:00:06;;;;;;;7.47;3.40;;;;;;;12.60;72.38;96571.55;1723963;83;25588;-86
2021/05/15 06:02:33;;;;;;;5.00;2.92;;;;;;;12.68;72.15;96572.23;1701679;83;27407;-86
2021/05/15 06:05:00;;;;;;;5.37;2.77;;;;;;;12.75;72.10;96574.23;1708052;83;25846;-85
2021/05/15 06:07:27;;;;;;;3.45;2.60;;;;;;;12.82;71.91;96577.06;1689170;84;25689;-86
2021/05/15 06:09:54;;;;;;;5.45;2.67;;;;;;;12.87;71.51;96577.69;1698139;84;25928;-86
2021/05/15 06:12:20;;;;;;;6.80;2.90;;;;;;;12.93;71.36;96575.33;1698671;84;25676;-86
2021/05/15 06:14:47;;;;;;;5.80;3.00;;;;;;;12.99;71.26;96568.95;1678809;84;27494;-86
2021/05/15 06:17:13;;;;;;;3.50;2.80;;;;;;;13.04;71.31;96566.30;1699188;84;25615;-85
2021/05/15 06:19:40;;;;;;;4.00;2.58;;;;;;;13.15;71.21;96576.29;1724502;81;25634;-85
2021/05/15 06:22:08;;;;;;;5.22;2.65;;;;;;;13.25;71.07;96568.31;1698739;84;25632;-85
2021/05/15 06:24:39;;;;;;;4.25;2.27;;;;;;;13.37;70.87;96570.09;1712158;81;25583;-86
2021/05/15 06:27:03;;;;;;;4.72;2.85;;;;;;;13.47;70.79;96570.23;1724394;83;27371;-85
2021/05/15 06:29:32;;;;;;;4.58;2.98;;;;;;;13.55;70.59;96569.27;1724867;82;25715;-86
2021/05/15 06:31:59;;;;;;;5.53;2.90;;;;;;;13.65;70.35;96569.93;1724955;82;25686;-87
2021/05/15 06:34:25;;;;;;;4.92;3.00;;;;;;;13.73;69.96;96569.52;1692236;83;25861;-86
2021/05/15 06:36:52;;;;;;;4.40;2.15;;;;;;;13.80;69.55;96567.42;1725027;83;25228;-86
2021/05/15 06:39:19;;;;;;;3.85;2.17;;;;;;;13.87;69.11;96566.72;1722824;83;27493;-86
2021/05/15 06:41:45;;;;;;;2.77;1.92;;;;;;;13.97;68.78;96564.13;1714110;83;26742;-87
2021/05/15 06:44:12;;;;;;;4.87;1.98;;;;;;;14.07;68.31;96566.13;1743801;81;25663;-89
2021/05/15 06:46:38;;;;;;;4.35;2.22;;;;;;;14.13;67.67;96562.95;1746811;81;25752;-86
2021/05/15 06:49:05;;;;;;;3.30;1.90;;;;;;;14.16;67.12;96556.46;1746837;82;25682;-85
2021/05/15 06:51:32;;;;;;;2.70;2.12;;;;;;;14.25;66.96;96562.28;1749063;81;27494;-86
2021/05/15 06:53:58;;;;;;;3.45;2.27;;;;;;;14.32;66.39;96561.53;1718854;82;25980;-87
2021/05/15 06:56:25;;;;;;;3.37;1.67;;;;;;;14.40;65.95;96569.23;1709347;83;25743;-87
2021/05/15 06:58:52;;;;;;;2.80;2.15;;;;;;;14.44;65.45;96555.44;1697854;83;25860;-88
2021/05/15 07:01:18;;;;;;;4.55;1.85;;;;;;;14.53;65.38;96551.18;1697644;83;25732;-89
2021/05/15 07:03:45;;;;;;;4.50;2.37;;;;;;;14.63;65.23;96552.62;1697709;83;27979;-87
2021/05/15 07:06:12;;;;;;;4.22;2.20;;;;;;;14.73;65.21;96554.64;1680107;83;25658;-87
2021/05/15 07:08:38;;;;;;;3.90;2.33;;;;;;;14.81;64.85;96550.63;1699685;84;26200;-87
2021/05/15 07:11:05;;;;;;;3.90;2.20;;;;;;;14.87;64.50;96544.96;1725982;82;25733;-88
2021/05/15 07:13:32;;;;;;;3.90;2.05;;;;;;;14.98;64.67;96551.30;1725942;82;25625;-87
2021/05/15 07:15:58;;;;;;;5.70;2.15;;;;;;;15.07;64.39;96547.03;1725856;82;27431;-87
2021/05/15 07:18:25;;;;;;;3.65;2.05;;;;;;;15.19;64.04;96545.49;1725788;82;25724;-86
2021/05/15 07:20:52;;;;;;;6.15;2.52;;;;;;;15.25;63.34;96547.97;1726137;82;25658;-89
2021/05/15 07:23:18;;;;;;;6.80;2.10;;;;;;;15.35;63.20;96543.95;1726098;82;26395;-91
2021/05/15 07:25:45;;;;;;;4.25;2.50;;;;;;;15.44;63.26;96542.40;1726207;82;25645;-88
2021/05/15 07:28:12;;;;;;;5.08;2.08;;;;;;;15.54;62.80;96543.53;1725963;82;28014;-87
2021/05/15 07:30:39;;;;;;;3.02;2.42;;;;;;;15.66;62.58;96541.45;1726057;82;25404;-87
2021/05/15 07:33:07;;;;;;;4.70;2.67;;;;;;;15.73;62.22;96537.40;1725852;83;25651;-84
2021/05/15 07:35:34;;;;;;;3.33;2.15;;;;;;;15.86;61.96;96538.82;1726188;82;26162;-87
2021/05/15 07:38:00;;;;;;;7.72;2.10;;;;;;;16.11;61.69;96536.73;1724226;82;25626;-89
2021/05/15 07:40:27;;;;;;;4.85;2.52;;;;;;;16.49;61.49;96543.65;1705329;84;28032;-87
2021/05/15 07:42:54;;;;;;;4.08;2.30;;;;;;;16.92;61.18;96538.27;1708530;82;25641;-87
2021/05/15 07:45:20;;;;;;;3.80;1.70;;;;;;;17.40;61.02;96535.49;1728971;82;25619;-89
2021/05/15 07:47:47;;;;;;;2.95;1.98;;;;;;;17.92;60.83;96537.03;1728987;82;25561;-88
2021/05/15 07:50:14;;;;;;;4.37;1.95;;;;;;;18.39;59.67;96539.26;1722264;82;25615;-90
2021/05/15 07:52:40;;;;;;;4.45;1.82;;;;;;;18.78;58.89;96540.69;1712666;82;27372;-87
2021/05/15 07:55:09;;;;;;;4.60;1.98;;;;;;;19.21;58.20;96544.44;1724944;82;25663;-87
2021/05/15 07:57:36;;;;;;;2.45;1.90;;;;;;;19.62;57.30;96550.38;1721281;82;25672;-87
2021/05/15 08:00:05;;;;;;;2.90;1.72;;;;;;;19.96;56.63;96534.39;1716639;82;25685;-88
2021/05/15 08:02:32;;;;;;;3.98;1.98;;;;;;;20.37;56.10;96531.44;1733389;82;25682;-86
2021/05/15 08:04:59;;;;;;;3.20;2.08;;;;;;;20.66;55.38;96535.95;1728615;82;27347;-88
2021/05/15 08:07:25;;;;;;;6.00;1.98;;;;;;;21.29;54.65;96531.42;1708790;82;26449;-88
2021/05/15 08:09:52;;;;;;;2.60;1.80;;;;;;;21.29;54.65;96531.42;1729124;82;25264;-89
2021/05/15 08:12:19;;;;;;;2.67;1.62;;;;;;;21.57;53.67;96533.13;1729063;82;25730;-90
2021/05/15 08:14:45;;;;;;;2.52;2.20;;;;;;;21.83;53.12;96527.41;1731460;82;25705;-89
2021/05/15 08:17:12;;;;;;;4.28;1.80;;;;;;;22.07;52.25;96529.17;1719483;82;27298;-91
2021/05/15 08:19:39;;;;;;;2.10;1.62;;;;;;;22.22;51.29;96528.84;1729483;82;25639;-90
2021/05/15 08:22:06;;;;;;;1.87;1.50;;;;;;;22.43;51.16;96530.05;1729670;82;25635;-93
2021/05/15 08:24:33;;;;;;;2.02;1.57;;;;;;;22.80;50.57;96533.66;1728997;82;25619;-92
2021/05/15 08:26:59;;;;;;;2.77;1.57;;;;;;;22.99;49.61;96539.80;1729226;82;25680;-87
2021/05/15 08:29:28;;;;;;;1.80;1.65;;;;;;;23.27;49.53;96539.95;1727581;82;27413;-91
2021/05/15 08:31:55;;;;;;;2.65;1.55;;;;;;;23.47;48.43;96540.55;1710667;82;25646;-92
2021/05/15 08:34:21;;;;;;;2.98;1.50;;;;;;;23.68;47.59;96539.72;1728956;82;25752;-89
2021/05/15 08:36:48;;;;;;;2.70;1.80;;;;;;;24.08;47.38;96540.31;1729608;82;26365;-92
2021/05/15 08:39:15;;;;;;;2.83;1.87;;;;;;;24.24;46.58;96533.27;1711428;82;25578;-87
2021/05/15 08:41:41;;;;;;;1.60;1.50;;;;;;;24.03;46.47;96539.31;1698938;82;27328;-87
2021/05/15 08:44:12;;;;;;;2.47;1.72;;;;;;;23.98;46.02;96546.36;1721024;82;25756;-89
2021/05/15 08:46:42;;;;;;;5.30;1.95;;;;;;;23.68;45.05;96549.92;1718761;82;25705;-88
2021/05/15 08:49:09;;;;;;;1.87;1.40;;;;;;;23.09;45.36;96549.19;1704769;82;25715;-86
2021/05/15 08:51:36;;;;;;;2.65;1.50;;;;;;;23.02;45.65;96552.13;1707904;82;25663;-91
2021/05/15 08:54:03;;;;;;;2.05;1.37;;;;;;;23.37;45.61;96551.27;1711341;82;27272;-91
2021/05/15 08:56:30;;;;;;;1.37;1.27;;;;;;;23.56;44.61;96542.25;1715019;82;25696;-92
2021/05/15 08:58:57;;;;;;;2.10;1.70;;;;;;;23.70;44.45;96541.60;1730798;82;25613;-87
2021/05/15 09:01:24;;;;;;;3.45;1.70;;;;;;;23.81;44.12;96542.14;1729164;82;26476;-91
2021/05/15 09:03:51;;;;;;;2.80;1.50;;;;;;;23.63;43.84;96537.69;1724397;82;25733;-90
2021/05/15 09:06:18;;;;;;;1.52;1.30;;;;;;;23.41;44.08;96539.06;1728769;82;27341;-88
2021/05/15 09:08:49;;;;;;;2.20;1.57;;;;;;;23.24;43.25;96537.81;1723018;82;25704;-89
2021/05/15 09:11:16;;;;;;;3.02;1.80;;;;;;;23.28;43.57;96538.00;1710852;82;26194;-89
2021/05/15 09:13:54;;;;;;;2.40;1.60;;;;;;;23.79;43.68;96538.09;1729088;82;26344;-92
2021/05/15 09:16:21;;;;;;;2.20;1.72;;;;;;;23.94;43.64;96535.72;1726286;82;25601;-87
2021/05/15 09:18:48;;;;;;;2.22;1.60;;;;;;;23.99;43.16;96540.28;1714380;82;27481;-91
2021/05/15 09:21:19;;;;;;;2.02;1.92;;;;;;;23.45;42.49;96536.72;1717532;82;26121;-91
2021/05/15 09:23:47;;;;;;;3.05;2.05;;;;;;;22.88;42.65;96541.17;1712696;82;25635;-92
2021/05/15 09:26:20;;;;;;;1.92;1.72;;;;;;;22.77;42.26;96539.78;1729480;82;26340;-92
2021/05/15 09:28:57;;;;;;;1.65;1.55;;;;;;;22.56;41.80;96536.09;1729570;82;25640;-90
2021/05/15 09:31:42;;;;;;;2.62;1.90;;;;;;;22.26;42.27;96538.11;1723053;83;27331;-90
2021/05/15 09:34:08;;;;;;;3.37;1.80;;;;;;;22.11;41.84;96535.67;1755765;81;25716;-90
2021/05/15 09:36:38;;;;;;;2.17;1.75;;;;;;;21.93;42.92;96532.70;1713735;83;25698;-89
2021/05/15 09:39:22;;;;;;;3.42;1.95;;;;;;;22.09;43.23;96531.06;1747617;81;25683;-88
2021/05/15 09:41:58;;;;;;;1.60;1.47;;;;;;;22.19;42.73;96528.91;1732822;81;25737;-88
2021/05/15 09:44:33;;;;;;;1.42;1.22;;;;;;;22.22;42.74;96528.84;1723061;82;27325;-90
2021/05/15 09:47:03;;;;;;;2.15;1.37;;;;;;;22.62;43.44;96524.40;1731707;81;25705;-89
2021/05/15 09:49:32;;;;;;;2.20;1.30;;;;;;;23.32;43.30;96524.66;1750532;81;25649;-90
2021/05/15 09:52:06;;;;;;;1.82;1.40;;;;;;;23.89;42.40;96528.17;1691169;83;25739;-89
2021/05/15 09:54:35;;;;;;;1.62;1.20;;;;;;;24.30;41.50;96519.00;1741011;81;25654;-89
2021/05/15 09:57:08;;;;;;;3.70;1.72;;;;;;;24.74;40.48;96511.05;1749903;81;27420;-89
2021/05/15 09:59:38;;;;;;;1.20;1.10;;;;;;;24.81;40.34;96512.50;1725654;81;25678;-84
2021/05/15 10:02:08;;;;;;;4.78;1.05;;;;;;;24.77;39.59;96518.66;1749716;81;25941;-90
2021/05/15 10:04:35;;;;;;;2.25;1.30;;;;;;;24.56;38.86;96525.95;1749903;81;26417;-87
2021/05/15 10:07:03;;;;;;;6.42;1.30;;;;;;;24.40;38.33;96525.59;1749890;81;25628;-91
2021/05/15 10:09:36;;;;;;;5.05;4.55;;;;;;;24.23;38.49;96522.80;1752273;81;28062;-88
2021/05/15 10:12:05;;;;;;;2.92;2.72;;;;;;;23.99;38.41;96527.31;1749630;81;25598;-87
2021/05/15 10:14:33;;;;;;;7.00;4.20;;;;;;;23.56;39.13;96522.96;1749866;81;26382;-86
2021/05/15 10:17:01;;;;;;;3.62;2.98;;;;;;;23.27;39.30;96524.80;1743786;81;25730;-85
2021/05/15 10:19:29;;;;;;;3.10;2.80;;;;;;;23.05;39.56;96517.92;1717791;81;25673;-89
2021/05/15 10:21:57;;;;;;;2.85;2.12;;;;;;;22.72;39.86;96513.16;1746376;81;27323;-88
2021/05/15 10:24:30;;;;;;;3.40;1.85;;;;;;;22.50;40.61;96508.44;1750501;81;25626;-87
2021/05/15 10:27:10;;;;;;;2.33;2.12;;;;;;;22.51;40.20;96505.94;1744686;81;25696;-85
2021/05/15 10:29:55;;;;;;;4.12;1.62;;;;;;;22.33;40.70;96514.34;1748139;81;25816;-85
2021/05/15 10:32:29;;;;;;;2.33;1.90;;;;;;;22.28;40.60;96509.75;1740386;81;25655;-88
2021/05/15 10:35:07;;;;;;;2.08;1.70;;;;;;;22.10;40.73;96505.99;1749954;81;28196;-86
2021/05/15 10:37:42;;;;;;;2.67;1.90;;;;;;;21.39;40.97;96506.53;1748111;81;25210;-86
2021/05/15 10:40:17;;;;;;;3.58;2.12;;;;;;;21.23;41.67;96502.45;1749459;81;25664;-86
2021/05/15 10:42:44;;;;;;;2.95;2.00;;;;;;;21.07;42.04;96496.37;1748284;81;25571;-84
2021/05/15 10:45:13;;;;;;;2.20;2.00;;;;;;;20.70;42.10;96493.13;1749732;81;25652;-87
2021/05/15 10:47:44;;;;;;;2.17;1.70;;;;;;;20.62;42.83;96491.06;1751133;81;27363;-86
2021/05/15 10:50:22;;;;;;;2.62;1.90;;;;;;;20.66;42.67;96483.86;1742325;81;25748;-87
2021/05/15 10:52:51;;;;;;;2.42;1.85;;;;;;;21.11;42.52;96489.99;1731207;81;25692;-87
2021/05/15 10:55:33;;;;;;;2.02;1.42;;;;;;;21.23;41.71;96487.36;1751846;81;25740;-87
2021/05/15 10:58:15;;;;;;;3.30;1.92;;;;;;;21.23;41.71;96487.36;1728128;81;25578;-87
2021/05/15 11:00:42;;;;;;;3.52;2.00;;;;;;;21.39;42.01;96484.02;1749810;81;27485;-83
2021/05/15 11:03:09;;;;;;;4.17;1.98;;;;;;;21.40;41.69;96484.83;1753199;81;25665;-84
2021/05/15 11:05:43;;;;;;;1.72;1.62;;;;;;;21.24;42.22;96487.61;1753286;81;26289;-86
2021/05/15 11:08:24;;;;;;;2.37;1.80;;;;;;;21.16;42.62;96489.89;1720825;82;27346;-86
2021/05/15 11:10:53;;;;;;;3.40;2.17;;;;;;;21.15;42.73;96492.38;1753213;81;25649;-88
2021/05/15 11:13:20;;;;;;;3.05;1.90;;;;;;;21.10;43.24;96480.13;1751279;81;27419;-87
2021/05/15 11:15:49;;;;;;;2.02;1.90;;;;;;;21.01;43.36;96481.13;1723210;83;25941;-86
2021/05/15 11:18:31;;;;;;;3.98;2.40;;;;;;;20.91;43.31;96480.71;1700334;83;25654;-84
2021/05/15 11:21:05;;;;;;;6.03;2.90;;;;;;;21.02;43.15;96487.66;1753617;81;25792;-85
2021/05/15 11:23:35;;;;;;;2.80;2.08;;;;;;;21.03;42.87;96478.87;1723222;82;25633;-87
2021/05/15 11:26:05;;;;;;;5.95;4.50;;;;;;;21.22;43.28;96480.23;1752768;81;27383;-88
2021/05/15 11:28:33;;;;;;;2.20;2.00;;;;;;;21.63;42.69;96474.78;1753453;81;25684;-89
2021/05/15 11:31:03;;;;;;;2.65;1.95;;;;;;;21.75;42.43;96473.16;1723206;83;25845;-88
2021/05/15 11:33:32;;;;;;;2.70;2.02;;;;;;;21.70;42.48;96473.28;1716613;82;25741;-86
2021/05/15 11:35:59;;;;;;;4.17;3.33;;;;;;;21.69;42.56;96477.14;1727151;82;25626;-85